sensor_id;sensor_type;location;lat;lon;timestamp;P1;durP1;ratioP1;P2;durP2;ratioP2
42704;SDS011;28342;42.594;23.414;2022-10-19T00:01:01;10.07;;;5.30;;
42704;SDS011;28342;42.594;23.414;2022-10-19T00:05:58;10.70;;;5.43;;
42704;SDS011;28342;42.594;23.414;2022-10-19T00:08:23;11.30;;;5.95;;
42704;SDS011;28342;42.594;23.414;2022-10-19T00:10:49;9.68;;;6.05;;
42704;SDS011;28342;42.594;23.414;2022-10-19T00:13:14;12.88;;;6.75;;
42704;SDS011;28342;42.594;23.414;2022-10-19T00:15:40;11.05;;;6.70;;
42704;SDS011;28342;42.594;23.414;2022-10-19T00:18:06;10.57;;;6.03;;
42704;SDS011;28342;42.594;23.414;2022-10-19T00:20:32;11.77;;;6.60;;
42704;SDS011;28342;42.594;23.414;2022-10-19T00:22:58;13.43;;;7.38;;
42704;SDS011;28342;42.594;23.414;2022-10-19T00:25:24;11.57;;;6.97;;
42704;SDS011;28342;42.594;23.414;2022-10-19T00:27:49;10.52;;;5.95;;
42704;SDS011;28342;42.594;23.414;2022-10-19T00:30:15;10.27;;;6.25;;
42704;SDS011;28342;42.594;23.414;2022-10-19T00:32:41;13.43;;;6.95;;
42704;SDS011;28342;42.594;23.414;2022-10-19T00:35:06;14.38;;;6.32;;
42704;SDS011;28342;42.594;23.414;2022-10-19T00:37:32;11.82;;;6.70;;
42704;SDS011;28342;42.594;23.414;2022-10-19T00:39:57;12.32;;;6.22;;
42704;SDS011;28342;42.594;23.414;2022-10-19T00:42:23;12.88;;;6.43;;
42704;SDS011;28342;42.594;23.414;2022-10-19T00:47:14;9.68;;;6.32;;
42704;SDS011;28342;42.594;23.414;2022-10-19T00:49:43;11.57;;;7.00;;
42704;SDS011;28342;42.594;23.414;2022-10-19T00:52:11;8.68;;;5.75;;
42704;SDS011;28342;42.594;23.414;2022-10-19T00:54:39;13.70;;;6.88;;
42704;SDS011;28342;42.594;23.414;2022-10-19T00:57:06;10.23;;;6.03;;
42704;SDS011;28342;42.594;23.414;2022-10-19T00:59:33;9.32;;;6.40;;
42704;SDS011;28342;42.594;23.414;2022-10-19T01:01:59;13.38;;;6.95;;
42704;SDS011;28342;42.594;23.414;2022-10-19T01:04:27;11.82;;;6.60;;
42704;SDS011;28342;42.594;23.414;2022-10-19T01:06:54;11.75;;;6.68;;
42704;SDS011;28342;42.594;23.414;2022-10-19T01:09:21;15.48;;;7.32;;
42704;SDS011;28342;42.594;23.414;2022-10-19T01:28:17;10.45;;;6.70;;
42704;SDS011;28342;42.594;23.414;2022-10-19T01:33:46;15.82;;;6.68;;
42704;SDS011;28342;42.594;23.414;2022-10-19T01:39:08;13.05;;;7.25;;
42704;SDS011;28342;42.594;23.414;2022-10-19T01:47:06;10.82;;;6.40;;
42704;SDS011;28342;42.594;23.414;2022-10-19T01:49:47;12.43;;;6.72;;
42704;SDS011;28342;42.594;23.414;2022-10-19T01:52:17;10.52;;;7.15;;
42704;SDS011;28342;42.594;23.414;2022-10-19T01:54:46;11.55;;;6.28;;
42704;SDS011;28342;42.594;23.414;2022-10-19T01:57:16;9.73;;;6.68;;
42704;SDS011;28342;42.594;23.414;2022-10-19T01:59:46;12.25;;;6.30;;
42704;SDS011;28342;42.594;23.414;2022-10-19T02:02:13;13.73;;;6.20;;
42704;SDS011;28342;42.594;23.414;2022-10-19T02:04:40;14.52;;;6.68;;
42704;SDS011;28342;42.594;23.414;2022-10-19T02:07:06;9.52;;;6.63;;
42704;SDS011;28342;42.594;23.414;2022-10-19T02:09:33;14.35;;;6.85;;
42704;SDS011;28342;42.594;23.414;2022-10-19T02:11:59;12.30;;;7.22;;
42704;SDS011;28342;42.594;23.414;2022-10-19T02:14:28;11.90;;;7.18;;
42704;SDS011;28342;42.594;23.414;2022-10-19T02:16:58;11.80;;;7.03;;
42704;SDS011;28342;42.594;23.414;2022-10-19T02:19:30;13.25;;;8.07;;
42704;SDS011;28342;42.594;23.414;2022-10-19T02:21:56;14.88;;;7.97;;
42704;SDS011;28342;42.594;23.414;2022-10-19T02:24:22;11.88;;;7.68;;
42704;SDS011;28342;42.594;23.414;2022-10-19T02:26:47;14.93;;;8.20;;
42704;SDS011;28342;42.594;23.414;2022-10-19T02:29:14;13.15;;;7.28;;
42704;SDS011;28342;42.594;23.414;2022-10-19T02:31:40;14.45;;;8.27;;
42704;SDS011;28342;42.594;23.414;2022-10-19T02:34:07;11.38;;;7.05;;
42704;SDS011;28342;42.594;23.414;2022-10-19T02:36:33;10.52;;;7.45;;
42704;SDS011;28342;42.594;23.414;2022-10-19T02:38:59;13.70;;;6.95;;
42704;SDS011;28342;42.594;23.414;2022-10-19T02:44:09;11.63;;;6.20;;
42704;SDS011;28342;42.594;23.414;2022-10-19T02:46:44;10.07;;;5.72;;
42704;SDS011;28342;42.594;23.414;2022-10-19T02:49:18;11.38;;;6.28;;
42704;SDS011;28342;42.594;23.414;2022-10-19T02:51:55;12.13;;;6.15;;
42704;SDS011;28342;42.594;23.414;2022-10-19T02:54:22;12.38;;;6.00;;
42704;SDS011;28342;42.594;23.414;2022-10-19T02:56:47;9.88;;;6.50;;
42704;SDS011;28342;42.594;23.414;2022-10-19T02:59:13;14.13;;;8.13;;
42704;SDS011;28342;42.594;23.414;2022-10-19T03:01:38;14.27;;;8.38;;
42704;SDS011;28342;42.594;23.414;2022-10-19T03:04:03;13.07;;;8.15;;
42704;SDS011;28342;42.594;23.414;2022-10-19T03:06:29;11.30;;;7.20;;
42704;SDS011;28342;42.594;23.414;2022-10-19T03:08:54;13.70;;;6.53;;
42704;SDS011;28342;42.594;23.414;2022-10-19T03:11:20;12.50;;;6.22;;
42704;SDS011;28342;42.594;23.414;2022-10-19T03:13:45;10.25;;;6.85;;
42704;SDS011;28342;42.594;23.414;2022-10-19T03:16:11;12.02;;;6.72;;
42704;SDS011;28342;42.594;23.414;2022-10-19T03:18:37;11.65;;;6.78;;
42704;SDS011;28342;42.594;23.414;2022-10-19T03:21:12;8.65;;;5.57;;
42704;SDS011;28342;42.594;23.414;2022-10-19T03:23:38;8.60;;;5.60;;
42704;SDS011;28342;42.594;23.414;2022-10-19T03:26:04;11.23;;;6.10;;
42704;SDS011;28342;42.594;23.414;2022-10-19T03:28:30;10.65;;;6.07;;
42704;SDS011;28342;42.594;23.414;2022-10-19T03:30:56;6.53;;;5.05;;
42704;SDS011;28342;42.594;23.414;2022-10-19T03:33:21;10.90;;;5.53;;
42704;SDS011;28342;42.594;23.414;2022-10-19T03:35:47;8.25;;;5.80;;
42704;SDS011;28342;42.594;23.414;2022-10-19T03:38:13;8.48;;;5.00;;
42704;SDS011;28342;42.594;23.414;2022-10-19T03:40:38;9.20;;;5.45;;
42704;SDS011;28342;42.594;23.414;2022-10-19T03:43:04;6.72;;;4.90;;
42704;SDS011;28342;42.594;23.414;2022-10-19T03:45:29;9.63;;;5.68;;
42704;SDS011;28342;42.594;23.414;2022-10-19T03:47:55;8.65;;;5.50;;
42704;SDS011;28342;42.594;23.414;2022-10-19T03:50:20;11.60;;;5.85;;
42704;SDS011;28342;42.594;23.414;2022-10-19T03:52:46;9.93;;;5.78;;
42704;SDS011;28342;42.594;23.414;2022-10-19T03:55:13;13.02;;;6.20;;
42704;SDS011;28342;42.594;23.414;2022-10-19T03:57:39;10.88;;;6.72;;
42704;SDS011;28342;42.594;23.414;2022-10-19T04:00:06;10.73;;;6.35;;
42704;SDS011;28342;42.594;23.414;2022-10-19T04:02:32;12.93;;;6.60;;
42704;SDS011;28342;42.594;23.414;2022-10-19T04:04:58;9.07;;;6.47;;
42704;SDS011;28342;42.594;23.414;2022-10-19T04:07:23;10.82;;;6.85;;
42704;SDS011;28342;42.594;23.414;2022-10-19T04:09:48;10.52;;;5.75;;
42704;SDS011;28342;42.594;23.414;2022-10-19T04:12:14;12.57;;;5.57;;
42704;SDS011;28342;42.594;23.414;2022-10-19T04:14:39;12.80;;;5.93;;
42704;SDS011;28342;42.594;23.414;2022-10-19T04:17:05;12.23;;;6.03;;
42704;SDS011;28342;42.594;23.414;2022-10-19T04:19:38;9.27;;;4.93;;
42704;SDS011;28342;42.594;23.414;2022-10-19T04:22:05;10.38;;;5.50;;
42704;SDS011;28342;42.594;23.414;2022-10-19T04:24:31;13.18;;;5.35;;
42704;SDS011;28342;42.594;23.414;2022-10-19T04:26:56;10.32;;;5.72;;
42704;SDS011;28342;42.594;23.414;2022-10-19T04:29:22;10.85;;;6.22;;
42704;SDS011;28342;42.594;23.414;2022-10-19T04:31:49;11.18;;;6.15;;
42704;SDS011;28342;42.594;23.414;2022-10-19T04:34:17;7.45;;;5.00;;
42704;SDS011;28342;42.594;23.414;2022-10-19T04:36:43;10.63;;;5.70;;
42704;SDS011;28342;42.594;23.414;2022-10-19T04:39:09;11.18;;;5.63;;
42704;SDS011;28342;42.594;23.414;2022-10-19T04:41:36;8.30;;;5.45;;
42704;SDS011;28342;42.594;23.414;2022-10-19T04:44:03;10.75;;;5.68;;
42704;SDS011;28342;42.594;23.414;2022-10-19T04:46:30;13.00;;;6.00;;
42704;SDS011;28342;42.594;23.414;2022-10-19T04:48:57;8.32;;;5.70;;
42704;SDS011;28342;42.594;23.414;2022-10-19T04:51:23;16.75;;;6.05;;
42704;SDS011;28342;42.594;23.414;2022-10-19T04:53:49;9.88;;;5.55;;
42704;SDS011;28342;42.594;23.414;2022-10-19T04:56:15;12.55;;;5.70;;
42704;SDS011;28342;42.594;23.414;2022-10-19T04:58:45;14.65;;;6.20;;
42704;SDS011;28342;42.594;23.414;2022-10-19T05:01:12;10.23;;;5.97;;
42704;SDS011;28342;42.594;23.414;2022-10-19T05:03:42;12.70;;;6.05;;
42704;SDS011;28342;42.594;23.414;2022-10-19T05:06:09;10.90;;;6.15;;
42704;SDS011;28342;42.594;23.414;2022-10-19T05:08:35;11.35;;;5.63;;
42704;SDS011;28342;42.594;23.414;2022-10-19T05:11:08;9.52;;;5.30;;
42704;SDS011;28342;42.594;23.414;2022-10-19T05:13:36;14.50;;;5.82;;
42704;SDS011;28342;42.594;23.414;2022-10-19T05:16:03;11.27;;;6.07;;
42704;SDS011;28342;42.594;23.414;2022-10-19T05:18:30;10.52;;;6.22;;
42704;SDS011;28342;42.594;23.414;2022-10-19T05:20:59;8.48;;;5.88;;
42704;SDS011;28342;42.594;23.414;2022-10-19T05:23:29;13.65;;;5.50;;
42704;SDS011;28342;42.594;23.414;2022-10-19T05:26:01;12.00;;;5.78;;
42704;SDS011;28342;42.594;23.414;2022-10-19T05:28:32;8.60;;;5.45;;
42704;SDS011;28342;42.594;23.414;2022-10-19T05:31:31;8.00;;;5.20;;
42704;SDS011;28342;42.594;23.414;2022-10-19T05:33:51;12.82;;;4.88;;
42704;SDS011;28342;42.594;23.414;2022-10-19T05:36:18;8.45;;;5.28;;
42704;SDS011;28342;42.594;23.414;2022-10-19T05:38:47;11.45;;;4.93;;
42704;SDS011;28342;42.594;23.414;2022-10-19T05:41:14;12.13;;;6.60;;
42704;SDS011;28342;42.594;23.414;2022-10-19T05:43:40;10.70;;;5.35;;
42704;SDS011;28342;42.594;23.414;2022-10-19T05:46:09;8.57;;;4.65;;
42704;SDS011;28342;42.594;23.414;2022-10-19T05:48:42;15.15;;;5.18;;
42704;SDS011;28342;42.594;23.414;2022-10-19T05:51:09;7.43;;;4.35;;
42704;SDS011;28342;42.594;23.414;2022-10-19T05:53:37;13.02;;;5.32;;
42704;SDS011;28342;42.594;23.414;2022-10-19T05:56:03;14.27;;;6.15;;
42704;SDS011;28342;42.594;23.414;2022-10-19T05:58:29;9.82;;;5.10;;
42704;SDS011;28342;42.594;23.414;2022-10-19T06:00:56;9.05;;;5.28;;
42704;SDS011;28342;42.594;23.414;2022-10-19T06:03:23;9.18;;;4.82;;
42704;SDS011;28342;42.594;23.414;2022-10-19T06:05:50;7.45;;;4.50;;
42704;SDS011;28342;42.594;23.414;2022-10-19T06:08:16;11.07;;;4.95;;
42704;SDS011;28342;42.594;23.414;2022-10-19T06:10:42;11.70;;;4.68;;
42704;SDS011;28342;42.594;23.414;2022-10-19T06:13:09;8.25;;;5.20;;
42704;SDS011;28342;42.594;23.414;2022-10-19T06:15:35;8.55;;;4.85;;
42704;SDS011;28342;42.594;23.414;2022-10-19T06:18:04;8.30;;;4.68;;
42704;SDS011;28342;42.594;23.414;2022-10-19T06:20:32;8.25;;;4.55;;
42704;SDS011;28342;42.594;23.414;2022-10-19T06:23:00;7.65;;;4.50;;
42704;SDS011;28342;42.594;23.414;2022-10-19T06:25:26;8.27;;;5.25;;
42704;SDS011;28342;42.594;23.414;2022-10-19T06:27:52;8.25;;;4.97;;
42704;SDS011;28342;42.594;23.414;2022-10-19T06:30:18;10.68;;;4.70;;
42704;SDS011;28342;42.594;23.414;2022-10-19T06:32:43;7.95;;;4.63;;
42704;SDS011;28342;42.594;23.414;2022-10-19T06:35:11;9.20;;;4.82;;
42704;SDS011;28342;42.594;23.414;2022-10-19T06:37:39;7.63;;;4.38;;
42704;SDS011;28342;42.594;23.414;2022-10-19T06:40:05;10.18;;;5.05;;
42704;SDS011;28342;42.594;23.414;2022-10-19T06:42:30;10.27;;;4.68;;
42704;SDS011;28342;42.594;23.414;2022-10-19T06:44:56;20.00;;;4.95;;
42704;SDS011;28342;42.594;23.414;2022-10-19T06:47:21;7.65;;;4.80;;
42704;SDS011;28342;42.594;23.414;2022-10-19T06:49:47;16.38;;;4.30;;
42704;SDS011;28342;42.594;23.414;2022-10-19T06:52:12;10.13;;;4.38;;
42704;SDS011;28342;42.594;23.414;2022-10-19T06:54:37;9.15;;;5.00;;
42704;SDS011;28342;42.594;23.414;2022-10-19T06:57:03;8.05;;;4.25;;
42704;SDS011;28342;42.594;23.414;2022-10-19T06:59:28;6.50;;;4.35;;
42704;SDS011;28342;42.594;23.414;2022-10-19T07:01:54;7.45;;;4.40;;
42704;SDS011;28342;42.594;23.414;2022-10-19T07:04:19;6.05;;;4.10;;
42704;SDS011;28342;42.594;23.414;2022-10-19T07:06:44;6.95;;;4.18;;
42704;SDS011;28342;42.594;23.414;2022-10-19T07:09:12;6.82;;;4.05;;
42704;SDS011;28342;42.594;23.414;2022-10-19T07:11:38;6.05;;;4.05;;
42704;SDS011;28342;42.594;23.414;2022-10-19T07:14:03;7.18;;;4.95;;
42704;SDS011;28342;42.594;23.414;2022-10-19T07:16:28;10.23;;;4.85;;
42704;SDS011;28342;42.594;23.414;2022-10-19T07:18:54;8.85;;;4.28;;
42704;SDS011;28342;42.594;23.414;2022-10-19T07:21:24;8.90;;;4.60;;
42704;SDS011;28342;42.594;23.414;2022-10-19T07:23:49;8.00;;;3.97;;
42704;SDS011;28342;42.594;23.414;2022-10-19T07:26:16;5.78;;;3.53;;
42704;SDS011;28342;42.594;23.414;2022-10-19T07:28:45;5.43;;;3.63;;
42704;SDS011;28342;42.594;23.414;2022-10-19T07:31:20;8.10;;;3.90;;
42704;SDS011;28342;42.594;23.414;2022-10-19T07:33:50;6.38;;;3.97;;
42704;SDS011;28342;42.594;23.414;2022-10-19T07:36:19;13.95;;;4.88;;
42704;SDS011;28342;42.594;23.414;2022-10-19T07:38:49;10.45;;;4.22;;
42704;SDS011;28342;42.594;23.414;2022-10-19T07:41:16;6.55;;;4.28;;
42704;SDS011;28342;42.594;23.414;2022-10-19T07:43:44;11.55;;;4.15;;
42704;SDS011;28342;42.594;23.414;2022-10-19T07:46:12;12.50;;;4.50;;
42704;SDS011;28342;42.594;23.414;2022-10-19T07:48:40;7.47;;;3.28;;
42704;SDS011;28342;42.594;23.414;2022-10-19T07:51:06;6.05;;;3.80;;
42704;SDS011;28342;42.594;23.414;2022-10-19T07:53:33;5.55;;;3.75;;
42704;SDS011;28342;42.594;23.414;2022-10-19T07:56:03;7.53;;;3.55;;
42704;SDS011;28342;42.594;23.414;2022-10-19T07:58:33;8.45;;;4.10;;
42704;SDS011;28342;42.594;23.414;2022-10-19T08:01:01;8.43;;;4.20;;
42704;SDS011;28342;42.594;23.414;2022-10-19T08:03:28;8.18;;;3.60;;
42704;SDS011;28342;42.594;23.414;2022-10-19T08:05:58;10.32;;;4.00;;
42704;SDS011;28342;42.594;23.414;2022-10-19T08:08:25;12.25;;;4.22;;
42704;SDS011;28342;42.594;23.414;2022-10-19T08:10:50;7.93;;;4.57;;
42704;SDS011;28342;42.594;23.414;2022-10-19T08:13:15;10.25;;;5.10;;
42704;SDS011;28342;42.594;23.414;2022-10-19T08:15:41;19.05;;;5.57;;
42704;SDS011;28342;42.594;23.414;2022-10-19T08:18:07;10.05;;;5.10;;
42704;SDS011;28342;42.594;23.414;2022-10-19T08:20:32;9.80;;;5.03;;
42704;SDS011;28342;42.594;23.414;2022-10-19T08:22:57;12.45;;;5.13;;
42704;SDS011;28342;42.594;23.414;2022-10-19T08:25:23;19.27;;;6.13;;
42704;SDS011;28342;42.594;23.414;2022-10-19T08:27:48;11.90;;;5.40;;
42704;SDS011;28342;42.594;23.414;2022-10-19T08:30:14;14.52;;;5.50;;
42704;SDS011;28342;42.594;23.414;2022-10-19T08:32:39;16.83;;;7.13;;
42704;SDS011;28342;42.594;23.414;2022-10-19T08:35:05;17.95;;;7.72;;
42704;SDS011;28342;42.594;23.414;2022-10-19T08:37:31;17.55;;;7.32;;
42704;SDS011;28342;42.594;23.414;2022-10-19T08:39:56;14.68;;;7.18;;
42704;SDS011;28342;42.594;23.414;2022-10-19T08:42:23;16.83;;;7.78;;
42704;SDS011;28342;42.594;23.414;2022-10-19T08:45:02;17.27;;;7.47;;
42704;SDS011;28342;42.594;23.414;2022-10-19T08:47:59;15.88;;;7.18;;
42704;SDS011;28342;42.594;23.414;2022-10-19T08:50:36;18.48;;;7.47;;
42704;SDS011;28342;42.594;23.414;2022-10-19T08:53:04;12.05;;;7.22;;
42704;SDS011;28342;42.594;23.414;2022-10-19T09:01:03;15.57;;;7.25;;
42704;SDS011;28342;42.594;23.414;2022-10-19T09:09:09;19.00;;;7.95;;
42704;SDS011;28342;42.594;23.414;2022-10-19T09:11:37;14.63;;;7.82;;
42704;SDS011;28342;42.594;23.414;2022-10-19T09:16:42;17.52;;;8.07;;
42704;SDS011;28342;42.594;23.414;2022-10-19T09:19:20;18.35;;;6.75;;
42704;SDS011;28342;42.594;23.414;2022-10-19T09:21:50;24.85;;;8.68;;
42704;SDS011;28342;42.594;23.414;2022-10-19T09:24:28;14.48;;;8.15;;
42704;SDS011;28342;42.594;23.414;2022-10-19T09:26:55;17.40;;;7.60;;
42704;SDS011;28342;42.594;23.414;2022-10-19T09:29:27;27.40;;;9.40;;
42704;SDS011;28342;42.594;23.414;2022-10-19T09:32:18;21.98;;;7.80;;
42704;SDS011;28342;42.594;23.414;2022-10-19T09:34:55;13.93;;;7.70;;
42704;SDS011;28342;42.594;23.414;2022-10-19T09:37:26;11.18;;;6.47;;
42704;SDS011;28342;42.594;23.414;2022-10-19T09:39:53;14.30;;;6.25;;
42704;SDS011;28342;42.594;23.414;2022-10-19T09:42:26;33.47;;;28.27;;
42704;SDS011;28342;42.594;23.414;2022-10-19T09:44:54;16.60;;;13.70;;
42704;SDS011;28342;42.594;23.414;2022-10-19T09:47:34;9.73;;;5.07;;
42704;SDS011;28342;42.594;23.414;2022-10-19T09:52:39;6.43;;;3.72;;
42704;SDS011;28342;42.594;23.414;2022-10-19T09:55:50;14.05;;;4.18;;
42704;SDS011;28342;42.594;23.414;2022-10-19T10:00:48;6.85;;;3.72;;
42704;SDS011;28342;42.594;23.414;2022-10-19T10:03:23;10.45;;;4.40;;
42704;SDS011;28342;42.594;23.414;2022-10-19T10:05:55;5.97;;;3.70;;
42704;SDS011;28342;42.594;23.414;2022-10-19T10:08:33;7.28;;;3.45;;
42704;SDS011;28342;42.594;23.414;2022-10-19T10:11:06;10.15;;;4.32;;
42704;SDS011;28342;42.594;23.414;2022-10-19T10:13:35;4.73;;;3.00;;
42704;SDS011;28342;42.594;23.414;2022-10-19T10:16:05;7.50;;;3.78;;
42704;SDS011;28342;42.594;23.414;2022-10-19T10:18:34;6.22;;;3.40;;
42704;SDS011;28342;42.594;23.414;2022-10-19T10:21:11;8.98;;;3.83;;
42704;SDS011;28342;42.594;23.414;2022-10-19T10:23:44;11.02;;;3.88;;
42704;SDS011;28342;42.594;23.414;2022-10-19T10:26:27;6.78;;;3.47;;
42704;SDS011;28342;42.594;23.414;2022-10-19T10:28:52;11.52;;;3.70;;
42704;SDS011;28342;42.594;23.414;2022-10-19T10:31:19;11.75;;;3.50;;
42704;SDS011;28342;42.594;23.414;2022-10-19T10:33:55;10.02;;;3.53;;
42704;SDS011;28342;42.594;23.414;2022-10-19T10:36:26;5.65;;;3.08;;
42704;SDS011;28342;42.594;23.414;2022-10-19T10:38:56;8.52;;;3.38;;
42704;SDS011;28342;42.594;23.414;2022-10-19T10:43:58;6.97;;;3.72;;
42704;SDS011;28342;42.594;23.414;2022-10-19T10:46:28;6.47;;;3.65;;
42704;SDS011;28342;42.594;23.414;2022-10-19T10:49:05;4.65;;;2.83;;
42704;SDS011;28342;42.594;23.414;2022-10-19T10:54:27;5.65;;;3.55;;
42704;SDS011;28342;42.594;23.414;2022-10-19T11:05:11;8.52;;;3.90;;
42704;SDS011;28342;42.594;23.414;2022-10-19T11:07:47;6.88;;;3.03;;
42704;SDS011;28342;42.594;23.414;2022-10-19T11:10:20;5.57;;;3.25;;
42704;SDS011;28342;42.594;23.414;2022-10-19T11:12:48;12.55;;;3.53;;
42704;SDS011;28342;42.594;23.414;2022-10-19T11:15:30;11.10;;;3.28;;
42704;SDS011;28342;42.594;23.414;2022-10-19T11:20:34;6.68;;;3.22;;
42704;SDS011;28342;42.594;23.414;2022-10-19T11:23:14;6.35;;;2.80;;
42704;SDS011;28342;42.594;23.414;2022-10-19T11:25:54;6.60;;;3.00;;
42704;SDS011;28342;42.594;23.414;2022-10-19T11:28:34;8.13;;;2.78;;
42704;SDS011;28342;42.594;23.414;2022-10-19T11:31:20;6.43;;;2.75;;
42704;SDS011;28342;42.594;23.414;2022-10-19T11:33:56;5.78;;;3.22;;
42704;SDS011;28342;42.594;23.414;2022-10-19T11:47:05;5.85;;;2.75;;
42704;SDS011;28342;42.594;23.414;2022-10-19T11:56:00;6.50;;;3.08;;
42704;SDS011;28342;42.594;23.414;2022-10-19T11:58:57;8.13;;;3.00;;
42704;SDS011;28342;42.594;23.414;2022-10-19T12:16:43;5.82;;;3.17;;
42704;SDS011;28342;42.594;23.414;2022-10-19T12:19:16;5.45;;;3.00;;
42704;SDS011;28342;42.594;23.414;2022-10-19T12:21:45;4.80;;;2.42;;
42704;SDS011;28342;42.594;23.414;2022-10-19T12:24:13;8.38;;;2.55;;
42704;SDS011;28342;42.594;23.414;2022-10-19T12:26:42;10.70;;;2.60;;
42704;SDS011;28342;42.594;23.414;2022-10-19T12:29:26;4.07;;;2.80;;
42704;SDS011;28342;42.594;23.414;2022-10-19T12:31:56;5.25;;;2.50;;
42704;SDS011;28342;42.594;23.414;2022-10-19T12:37:13;7.13;;;2.75;;
42704;SDS011;28342;42.594;23.414;2022-10-19T12:42:32;11.20;;;2.47;;
42704;SDS011;28342;42.594;23.414;2022-10-19T12:47:33;3.65;;;2.63;;
42704;SDS011;28342;42.594;23.414;2022-10-19T12:49:58;4.97;;;2.78;;
42704;SDS011;28342;42.594;23.414;2022-10-19T12:52:41;7.07;;;3.00;;
42704;SDS011;28342;42.594;23.414;2022-10-19T12:57:44;8.38;;;3.50;;
42704;SDS011;28342;42.594;23.414;2022-10-19T13:00:19;20.75;;;3.90;;
42704;SDS011;28342;42.594;23.414;2022-10-19T13:02:47;8.30;;;2.90;;
42704;SDS011;28342;42.594;23.414;2022-10-19T13:05:22;5.22;;;2.95;;
42704;SDS011;28342;42.594;23.414;2022-10-19T13:07:49;8.45;;;2.80;;
42704;SDS011;28342;42.594;23.414;2022-10-19T13:10:20;6.05;;;3.10;;
42704;SDS011;28342;42.594;23.414;2022-10-19T13:12:48;7.55;;;2.83;;
42704;SDS011;28342;42.594;23.414;2022-10-19T13:17:58;6.70;;;2.92;;
42704;SDS011;28342;42.594;23.414;2022-10-19T13:25:26;6.60;;;3.55;;
42704;SDS011;28342;42.594;23.414;2022-10-19T13:32:59;3.90;;;3.08;;
42704;SDS011;28342;42.594;23.414;2022-10-19T13:35:45;4.20;;;2.67;;
42704;SDS011;28342;42.594;23.414;2022-10-19T13:40:40;6.88;;;3.22;;
42704;SDS011;28342;42.594;23.414;2022-10-19T13:51:30;7.22;;;3.35;;
42704;SDS011;28342;42.594;23.414;2022-10-19T13:59:26;4.85;;;3.10;;
42704;SDS011;28342;42.594;23.414;2022-10-19T14:06:59;7.25;;;3.75;;
42704;SDS011;28342;42.594;23.414;2022-10-19T14:12:22;6.75;;;3.70;;
42704;SDS011;28342;42.594;23.414;2022-10-19T14:14:49;7.28;;;3.92;;
42704;SDS011;28342;42.594;23.414;2022-10-19T14:17:22;9.45;;;3.90;;
42704;SDS011;28342;42.594;23.414;2022-10-19T14:19:54;6.32;;;4.07;;
42704;SDS011;28342;42.594;23.414;2022-10-19T14:25:05;10.50;;;4.28;;
42704;SDS011;28342;42.594;23.414;2022-10-19T14:27:43;11.38;;;4.10;;
42704;SDS011;28342;42.594;23.414;2022-10-19T14:32:50;7.15;;;4.03;;
42704;SDS011;28342;42.594;23.414;2022-10-19T14:37:55;8.73;;;4.07;;
42704;SDS011;28342;42.594;23.414;2022-10-19T14:40:23;6.22;;;4.03;;
42704;SDS011;28342;42.594;23.414;2022-10-19T14:42:54;13.52;;;4.93;;
42704;SDS011;28342;42.594;23.414;2022-10-19T14:45:25;9.02;;;3.88;;
42704;SDS011;28342;42.594;23.414;2022-10-19T14:47:53;15.27;;;4.80;;
42704;SDS011;28342;42.594;23.414;2022-10-19T14:50:23;10.30;;;4.70;;
42704;SDS011;28342;42.594;23.414;2022-10-19T14:52:55;72.45;;;6.85;;
42704;SDS011;28342;42.594;23.414;2022-10-19T14:55:25;12.15;;;5.13;;
42704;SDS011;28342;42.594;23.414;2022-10-19T14:57:58;17.13;;;4.72;;
42704;SDS011;28342;42.594;23.414;2022-10-19T15:00:23;8.25;;;4.53;;
42704;SDS011;28342;42.594;23.414;2022-10-19T15:02:57;16.05;;;5.30;;
42704;SDS011;28342;42.594;23.414;2022-10-19T15:05:25;12.30;;;5.05;;
42704;SDS011;28342;42.594;23.414;2022-10-19T15:07:53;12.00;;;5.15;;
42704;SDS011;28342;42.594;23.414;2022-10-19T15:10:27;10.10;;;4.68;;
42704;SDS011;28342;42.594;23.414;2022-10-19T15:13:00;13.95;;;5.57;;
42704;SDS011;28342;42.594;23.414;2022-10-19T15:22:56;13.43;;;5.30;;
42704;SDS011;28342;42.594;23.414;2022-10-19T15:25:25;10.73;;;5.30;;
42704;SDS011;28342;42.594;23.414;2022-10-19T15:31:24;7.68;;;5.05;;
42704;SDS011;28342;42.594;23.414;2022-10-19T15:33:55;13.00;;;5.70;;
42704;SDS011;28342;42.594;23.414;2022-10-19T15:36:23;16.65;;;5.82;;
42704;SDS011;28342;42.594;23.414;2022-10-19T15:39:11;9.40;;;5.32;;
42704;SDS011;28342;42.594;23.414;2022-10-19T15:41:45;11.13;;;6.90;;
42704;SDS011;28342;42.594;23.414;2022-10-19T15:47:13;12.65;;;7.07;;
42704;SDS011;28342;42.594;23.414;2022-10-19T15:52:16;19.67;;;9.40;;
42704;SDS011;28342;42.594;23.414;2022-10-19T15:54:50;15.02;;;8.43;;
42704;SDS011;28342;42.594;23.414;2022-10-19T15:57:23;12.90;;;8.13;;
42704;SDS011;28342;42.594;23.414;2022-10-19T15:59:56;14.20;;;6.85;;
42704;SDS011;28342;42.594;23.414;2022-10-19T16:02:23;11.05;;;5.72;;
42704;SDS011;28342;42.594;23.414;2022-10-19T16:04:52;12.77;;;5.93;;
42704;SDS011;28342;42.594;23.414;2022-10-19T16:07:29;17.73;;;10.85;;
42704;SDS011;28342;42.594;23.414;2022-10-19T16:09:56;22.35;;;12.27;;
42704;SDS011;28342;42.594;23.414;2022-10-19T16:12:22;35.30;;;19.42;;
42704;SDS011;28342;42.594;23.414;2022-10-19T16:14:50;35.08;;;21.90;;
42704;SDS011;28342;42.594;23.414;2022-10-19T16:17:15;34.45;;;19.25;;
42704;SDS011;28342;42.594;23.414;2022-10-19T16:19:41;20.30;;;12.55;;
42704;SDS011;28342;42.594;23.414;2022-10-19T16:22:08;19.83;;;11.68;;
42704;SDS011;28342;42.594;23.414;2022-10-19T16:24:33;17.20;;;11.43;;
42704;SDS011;28342;42.594;23.414;2022-10-19T16:26:59;14.82;;;9.63;;
42704;SDS011;28342;42.594;23.414;2022-10-19T16:29:24;15.93;;;8.35;;
42704;SDS011;28342;42.594;23.414;2022-10-19T16:31:50;18.77;;;9.35;;
42704;SDS011;28342;42.594;23.414;2022-10-19T16:34:15;18.73;;;10.13;;
42704;SDS011;28342;42.594;23.414;2022-10-19T16:36:41;12.82;;;7.75;;
42704;SDS011;28342;42.594;23.414;2022-10-19T16:39:06;14.98;;;8.45;;
42704;SDS011;28342;42.594;23.414;2022-10-19T16:41:32;13.30;;;7.85;;
42704;SDS011;28342;42.594;23.414;2022-10-19T16:43:58;17.88;;;8.60;;
42704;SDS011;28342;42.594;23.414;2022-10-19T16:46:23;13.73;;;8.55;;
42704;SDS011;28342;42.594;23.414;2022-10-19T16:48:50;11.32;;;6.55;;
42704;SDS011;28342;42.594;23.414;2022-10-19T16:51:17;10.93;;;7.00;;
42704;SDS011;28342;42.594;23.414;2022-10-19T16:53:52;12.68;;;7.63;;
42704;SDS011;28342;42.594;23.414;2022-10-19T16:56:21;8.75;;;6.57;;
42704;SDS011;28342;42.594;23.414;2022-10-19T16:58:47;15.40;;;7.72;;
42704;SDS011;28342;42.594;23.414;2022-10-19T17:01:17;13.77;;;7.82;;
42704;SDS011;28342;42.594;23.414;2022-10-19T17:03:43;15.05;;;7.25;;
42704;SDS011;28342;42.594;23.414;2022-10-19T17:06:10;12.60;;;7.85;;
42704;SDS011;28342;42.594;23.414;2022-10-19T17:08:36;18.90;;;8.07;;
42704;SDS011;28342;42.594;23.414;2022-10-19T17:11:13;13.15;;;7.97;;
42704;SDS011;28342;42.594;23.414;2022-10-19T17:13:39;16.30;;;7.28;;
42704;SDS011;28342;42.594;23.414;2022-10-19T17:16:05;13.88;;;7.82;;
42704;SDS011;28342;42.594;23.414;2022-10-19T17:18:31;10.48;;;7.50;;
42704;SDS011;28342;42.594;23.414;2022-10-19T17:21:17;11.43;;;7.50;;
42704;SDS011;28342;42.594;23.414;2022-10-19T17:23:44;13.63;;;7.43;;
42704;SDS011;28342;42.594;23.414;2022-10-19T17:26:10;15.90;;;7.80;;
42704;SDS011;28342;42.594;23.414;2022-10-19T17:28:38;14.27;;;7.47;;
42704;SDS011;28342;42.594;23.414;2022-10-19T17:31:10;17.25;;;8.75;;